createdAt,value
2022-10-02T00:20:16.119Z,37.45
2022-10-02T03:53:02.869Z,26.23
2022-10-02T04:00:08.917Z,24.08
2022-10-02T04:17:39.410Z,25.13
2022-10-02T06:52:08.594Z,23.23
2022-10-02T06:55:55.242Z,17.83
2022-10-02T07:06:48.308Z,18.83
2022-10-02T08:02:12.616Z,22.20
2022-10-02T08:21:21.913Z,18.30
2022-10-02T08:23:57.717Z,17.88
2022-10-02T08:26:35.922Z,18.73
2022-10-02T08:29:12.505Z,20.50
2022-10-02T08:31:43.862Z,23.35
2022-10-02T08:34:19.285Z,19.08
2022-10-02T08:37:30.027Z,16.63
2022-10-02T08:40:50.576Z,24.92
2022-10-02T08:44:07.997Z,13.80
2022-10-02T08:47:33.437Z,13.63
2022-10-02T08:51:01.385Z,17.27
2022-10-02T08:54:20.404Z,15.48
2022-10-02T08:57:27.549Z,15.80
2022-10-02T09:00:23.669Z,17.48
2022-10-02T09:03:55.385Z,22.02
2022-10-02T09:07:33.125Z,16.25
2022-10-02T09:10:53.080Z,22.02
2022-10-02T09:14:21.635Z,16.67
2022-10-02T09:17:17.856Z,16.17
2022-10-02T09:20:11.610Z,16.35
2022-10-02T09:23:38.856Z,16.70
2022-10-02T09:26:31.316Z,15.27
2022-10-02T09:29:37.674Z,16.60
2022-10-02T09:32:43.757Z,15.93
2022-10-02T09:35:42.446Z,17.55
2022-10-02T09:38:53.834Z,17.95
2022-10-02T09:41:57.255Z,15.13
2022-10-02T09:45:26.789Z,18.10
2022-10-02T09:48:43.276Z,18.38
2022-10-02T09:52:14.789Z,16.38
2022-10-02T10:15:56.935Z,19.15
2022-10-02T11:30:22.930Z,14.40
2022-10-02T11:34:11.000Z,15.02
2022-10-02T11:37:33.916Z,14.60
2022-10-02T11:44:27.287Z,17.17
2022-10-02T11:47:53.309Z,14.82
2022-10-02T17:58:34.139Z,13.48
